sensor_id;sensor_type;location;lat;lon;timestamp;P1;durP1;ratioP1;P2;durP2;ratioP2
9563;SDS011;4820;50.870;4.702;2023-02-28T00:00:28;6.45;;;4.40;;
9563;SDS011;4820;50.870;4.702;2023-02-28T00:02:53;6.60;;;4.30;;
9563;SDS011;4820;50.870;4.702;2023-02-28T00:05:20;5.37;;;3.83;;
9563;SDS011;4820;50.870;4.702;2023-02-28T00:07:47;5.13;;;3.90;;
9563;SDS011;4820;50.870;4.702;2023-02-28T00:12:51;6.17;;;4.50;;
9563;SDS011;4820;50.870;4.702;2023-02-28T00:15:17;5.73;;;4.10;;
9563;SDS011;4820;50.870;4.702;2023-02-28T00:17:43;7.00;;;3.92;;
9563;SDS011;4820;50.870;4.702;2023-02-28T00:20:10;5.23;;;3.90;;
9563;SDS011;4820;50.870;4.702;2023-02-28T00:22:41;7.70;;;4.10;;
9563;SDS011;4820;50.870;4.702;2023-02-28T00:25:08;4.22;;;3.83;;
9563;SDS011;4820;50.870;4.702;2023-02-28T00:27:35;4.40;;;3.80;;
9563;SDS011;4820;50.870;4.702;2023-02-28T00:30:02;4.57;;;3.77;;
9563;SDS011;4820;50.870;4.702;2023-02-28T00:32:29;6.22;;;4.38;;
9563;SDS011;4820;50.870;4.702;2023-02-28T00:34:55;5.77;;;4.00;;
9563;SDS011;4820;50.870;4.702;2023-02-28T00:37:21;4.70;;;3.67;;
9563;SDS011;4820;50.870;4.702;2023-02-28T00:39:47;5.88;;;3.58;;
9563;SDS011;4820;50.870;4.702;2023-02-28T00:42:12;4.43;;;3.60;;
9563;SDS011;4820;50.870;4.702;2023-02-28T00:44:38;6.10;;;3.97;;
9563;SDS011;4820;50.870;4.702;2023-02-28T00:47:04;5.22;;;3.90;;
9563;SDS011;4820;50.870;4.702;2023-02-28T00:49:30;6.75;;;3.97;;
9563;SDS011;4820;50.870;4.702;2023-02-28T00:51:56;6.07;;;4.10;;
9563;SDS011;4820;50.870;4.702;2023-02-28T00:54:22;5.60;;;4.07;;
9563;SDS011;4820;50.870;4.702;2023-02-28T00:56:48;6.87;;;3.50;;
9563;SDS011;4820;50.870;4.702;2023-02-28T00:59:14;5.10;;;4.07;;
9563;SDS011;4820;50.870;4.702;2023-02-28T01:01:41;4.80;;;3.80;;
9563;SDS011;4820;50.870;4.702;2023-02-28T01:04:08;4.90;;;4.30;;
9563;SDS011;4820;50.870;4.702;2023-02-28T01:06:34;5.57;;;4.20;;
9563;SDS011;4820;50.870;4.702;2023-02-28T01:09:01;5.45;;;3.60;;
9563;SDS011;4820;50.870;4.702;2023-02-28T01:11:29;6.20;;;4.30;;
9563;SDS011;4820;50.870;4.702;2023-02-28T01:13:54;4.30;;;3.90;;
9563;SDS011;4820;50.870;4.702;2023-02-28T01:16:20;4.80;;;3.77;;
9563;SDS011;4820;50.870;4.702;2023-02-28T01:18:46;5.60;;;3.73;;
9563;SDS011;4820;50.870;4.702;2023-02-28T01:21:13;4.60;;;3.57;;
9563;SDS011;4820;50.870;4.702;2023-02-28T01:23:40;8.57;;;4.43;;
9563;SDS011;4820;50.870;4.702;2023-02-28T01:26:17;7.27;;;3.97;;
9563;SDS011;4820;50.870;4.702;2023-02-28T01:28:45;6.73;;;4.17;;
9563;SDS011;4820;50.870;4.702;2023-02-28T01:31:12;5.83;;;3.53;;
9563;SDS011;4820;50.870;4.702;2023-02-28T01:33:39;4.83;;;3.60;;
9563;SDS011;4820;50.870;4.702;2023-02-28T01:36:06;5.63;;;3.90;;
9563;SDS011;4820;50.870;4.702;2023-02-28T01:38:34;4.70;;;3.73;;
9563;SDS011;4820;50.870;4.702;2023-02-28T01:41:01;5.37;;;4.10;;
9563;SDS011;4820;50.870;4.702;2023-02-28T01:43:28;5.67;;;4.00;;
9563;SDS011;4820;50.870;4.702;2023-02-28T01:45:56;4.93;;;4.37;;
9563;SDS011;4820;50.870;4.702;2023-02-28T01:48:29;4.93;;;3.95;;
9563;SDS011;4820;50.870;4.702;2023-02-28T01:50:58;4.73;;;3.67;;
9563;SDS011;4820;50.870;4.702;2023-02-28T01:53:30;5.77;;;4.10;;
9563;SDS011;4820;50.870;4.702;2023-02-28T01:56:00;5.20;;;4.10;;
9563;SDS011;4820;50.870;4.702;2023-02-28T01:58:31;5.70;;;4.27;;
9563;SDS011;4820;50.870;4.702;2023-02-28T02:00:57;7.37;;;4.27;;
9563;SDS011;4820;50.870;4.702;2023-02-28T02:03:23;6.50;;;4.20;;
9563;SDS011;4820;50.870;4.702;2023-02-28T02:05:49;5.80;;;4.10;;
9563;SDS011;4820;50.870;4.702;2023-02-28T02:08:22;6.20;;;4.40;;
9563;SDS011;4820;50.870;4.702;2023-02-28T02:10:52;5.93;;;4.07;;
9563;SDS011;4820;50.870;4.702;2023-02-28T02:43:51;5.30;;;4.13;;
9563;SDS011;4820;50.870;4.702;2023-02-28T02:46:32;6.00;;;4.40;;
9563;SDS011;4820;50.870;4.702;2023-02-28T02:49:04;7.10;;;5.20;;
9563;SDS011;4820;50.870;4.702;2023-02-28T02:51:34;5.03;;;4.53;;
9563;SDS011;4820;50.870;4.702;2023-02-28T02:56:54;7.03;;;4.57;;
9563;SDS011;4820;50.870;4.702;2023-02-28T02:59:33;6.67;;;4.80;;
9563;SDS011;4820;50.870;4.702;2023-02-28T03:02:04;7.43;;;4.80;;
9563;SDS011;4820;50.870;4.702;2023-02-28T03:04:35;5.23;;;4.73;;
9563;SDS011;4820;50.870;4.702;2023-02-28T03:07:07;7.90;;;4.70;;
9563;SDS011;4820;50.870;4.702;2023-02-28T03:09:33;6.70;;;4.90;;
9563;SDS011;4820;50.870;4.702;2023-02-28T03:12:00;5.60;;;4.63;;
9563;SDS011;4820;50.870;4.702;2023-02-28T03:17:29;8.13;;;4.80;;
9563;SDS011;4820;50.870;4.702;2023-02-28T03:22:52;6.90;;;4.93;;
9563;SDS011;4820;50.870;4.702;2023-02-28T03:27:52;7.37;;;5.20;;
9563;SDS011;4820;50.870;4.702;2023-02-28T03:32:53;8.67;;;5.30;;
9563;SDS011;4820;50.870;4.702;2023-02-28T03:35:28;8.27;;;5.33;;
9563;SDS011;4820;50.870;4.702;2023-02-28T03:38:01;8.83;;;5.20;;
9563;SDS011;4820;50.870;4.702;2023-02-28T03:40:39;7.70;;;5.43;;
9563;SDS011;4820;50.870;4.702;2023-02-28T03:43:12;5.93;;;5.20;;
9563;SDS011;4820;50.870;4.702;2023-02-28T03:45:43;8.50;;;5.63;;
9563;SDS011;4820;50.870;4.702;2023-02-28T03:48:20;7.03;;;5.23;;
9563;SDS011;4820;50.870;4.702;2023-02-28T03:50:53;5.80;;;4.83;;
9563;SDS011;4820;50.870;4.702;2023-02-28T03:55:53;5.30;;;4.63;;
9563;SDS011;4820;50.870;4.702;2023-02-28T03:58:37;8.10;;;5.40;;
9563;SDS011;4820;50.870;4.702;2023-02-28T04:01:12;6.17;;;5.03;;
9563;SDS011;4820;50.870;4.702;2023-02-28T04:03:50;7.67;;;6.07;;
9563;SDS011;4820;50.870;4.702;2023-02-28T04:06:17;8.70;;;5.60;;
9563;SDS011;4820;50.870;4.702;2023-02-28T04:08:45;7.13;;;5.50;;
9563;SDS011;4820;50.870;4.702;2023-02-28T04:13:48;7.17;;;4.93;;
9563;SDS011;4820;50.870;4.702;2023-02-28T04:16:14;8.43;;;5.67;;
9563;SDS011;4820;50.870;4.702;2023-02-28T04:18:41;7.27;;;5.57;;
9563;SDS011;4820;50.870;4.702;2023-02-28T04:21:08;7.87;;;5.23;;
9563;SDS011;4820;50.870;4.702;2023-02-28T04:23:35;7.90;;;5.73;;
9563;SDS011;4820;50.870;4.702;2023-02-28T04:26:00;6.10;;;5.50;;
9563;SDS011;4820;50.870;4.702;2023-02-28T04:28:26;9.10;;;6.13;;
9563;SDS011;4820;50.870;4.702;2023-02-28T04:30:56;7.30;;;5.60;;
9563;SDS011;4820;50.870;4.702;2023-02-28T04:33:23;6.97;;;6.13;;
9563;SDS011;4820;50.870;4.702;2023-02-28T04:35:59;9.70;;;6.07;;
9563;SDS011;4820;50.870;4.702;2023-02-28T04:38:33;10.30;;;6.10;;
9563;SDS011;4820;50.870;4.702;2023-02-28T04:41:00;6.80;;;6.10;;
9563;SDS011;4820;50.870;4.702;2023-02-28T04:43:27;7.83;;;5.93;;
9563;SDS011;4820;50.870;4.702;2023-02-28T04:45:55;7.43;;;6.00;;
9563;SDS011;4820;50.870;4.702;2023-02-28T04:48:25;7.43;;;5.70;;
9563;SDS011;4820;50.870;4.702;2023-02-28T04:50:53;7.83;;;6.37;;
9563;SDS011;4820;50.870;4.702;2023-02-28T04:53:19;10.33;;;6.20;;
9563;SDS011;4820;50.870;4.702;2023-02-28T04:55:46;7.37;;;5.93;;
9563;SDS011;4820;50.870;4.702;2023-02-28T04:58:15;9.00;;;6.73;;
9563;SDS011;4820;50.870;4.702;2023-02-28T05:00:41;8.10;;;6.23;;
9563;SDS011;4820;50.870;4.702;2023-02-28T05:03:06;8.03;;;6.43;;
9563;SDS011;4820;50.870;4.702;2023-02-28T05:05:32;7.73;;;6.30;;
9563;SDS011;4820;50.870;4.702;2023-02-28T05:07:58;7.90;;;6.50;;
9563;SDS011;4820;50.870;4.702;2023-02-28T05:10:24;9.93;;;7.17;;
9563;SDS011;4820;50.870;4.702;2023-02-28T05:12:49;8.63;;;6.50;;
9563;SDS011;4820;50.870;4.702;2023-02-28T05:15:17;10.10;;;6.63;;
9563;SDS011;4820;50.870;4.702;2023-02-28T05:17:43;7.93;;;6.40;;
9563;SDS011;4820;50.870;4.702;2023-02-28T05:20:09;9.40;;;6.07;;
9563;SDS011;4820;50.870;4.702;2023-02-28T05:22:39;8.47;;;6.67;;
9563;SDS011;4820;50.870;4.702;2023-02-28T05:25:05;8.40;;;6.50;;
9563;SDS011;4820;50.870;4.702;2023-02-28T05:27:32;8.93;;;6.90;;
9563;SDS011;4820;50.870;4.702;2023-02-28T05:29:58;8.63;;;6.10;;
9563;SDS011;4820;50.870;4.702;2023-02-28T05:32:24;8.40;;;6.73;;
9563;SDS011;4820;50.870;4.702;2023-02-28T05:34:50;9.40;;;6.60;;
9563;SDS011;4820;50.870;4.702;2023-02-28T05:37:15;6.83;;;6.13;;
9563;SDS011;4820;50.870;4.702;2023-02-28T05:39:42;8.73;;;6.67;;
9563;SDS011;4820;50.870;4.702;2023-02-28T05:42:08;8.87;;;6.80;;
9563;SDS011;4820;50.870;4.702;2023-02-28T05:44:34;9.43;;;6.83;;
9563;SDS011;4820;50.870;4.702;2023-02-28T05:47:00;8.57;;;6.63;;
9563;SDS011;4820;50.870;4.702;2023-02-28T05:49:26;7.33;;;6.40;;
9563;SDS011;4820;50.870;4.702;2023-02-28T05:51:52;9.23;;;6.43;;
9563;SDS011;4820;50.870;4.702;2023-02-28T05:54:17;8.90;;;6.80;;
9563;SDS011;4820;50.870;4.702;2023-02-28T05:56:43;8.63;;;7.00;;
9563;SDS011;4820;50.870;4.702;2023-02-28T05:59:12;9.47;;;7.17;;
9563;SDS011;4820;50.870;4.702;2023-02-28T06:01:39;11.03;;;7.17;;
9563;SDS011;4820;50.870;4.702;2023-02-28T06:04:07;7.90;;;7.00;;
9563;SDS011;4820;50.870;4.702;2023-02-28T06:06:34;7.43;;;6.37;;
9563;SDS011;4820;50.870;4.702;2023-02-28T06:09:01;9.90;;;7.07;;
9563;SDS011;4820;50.870;4.702;2023-02-28T06:11:27;7.77;;;6.57;;
9563;SDS011;4820;50.870;4.702;2023-02-28T06:13:56;7.50;;;6.63;;
9563;SDS011;4820;50.870;4.702;2023-02-28T06:16:24;9.03;;;6.90;;
9563;SDS011;4820;50.870;4.702;2023-02-28T06:18:50;9.23;;;7.17;;
9563;SDS011;4820;50.870;4.702;2023-02-28T06:21:18;8.63;;;6.93;;
9563;SDS011;4820;50.870;4.702;2023-02-28T06:23:44;8.37;;;6.47;;
9563;SDS011;4820;50.870;4.702;2023-02-28T06:26:10;8.63;;;7.03;;
9563;SDS011;4820;50.870;4.702;2023-02-28T06:28:35;10.20;;;6.63;;
9563;SDS011;4820;50.870;4.702;2023-02-28T06:31:11;10.23;;;6.77;;
9563;SDS011;4820;50.870;4.702;2023-02-28T06:33:39;9.47;;;7.23;;
9563;SDS011;4820;50.870;4.702;2023-02-28T06:36:06;8.17;;;6.17;;
9563;SDS011;4820;50.870;4.702;2023-02-28T06:38:34;9.17;;;6.80;;
9563;SDS011;4820;50.870;4.702;2023-02-28T06:41:02;10.23;;;6.27;;
9563;SDS011;4820;50.870;4.702;2023-02-28T06:43:29;9.83;;;6.63;;
9563;SDS011;4820;50.870;4.702;2023-02-28T06:45:57;12.73;;;6.57;;
9563;SDS011;4820;50.870;4.702;2023-02-28T06:48:24;10.90;;;6.40;;
9563;SDS011;4820;50.870;4.702;2023-02-28T06:50:51;9.03;;;6.40;;
9563;SDS011;4820;50.870;4.702;2023-02-28T06:53:17;9.20;;;6.17;;
9563;SDS011;4820;50.870;4.702;2023-02-28T06:55:43;8.17;;;6.67;;
9563;SDS011;4820;50.870;4.702;2023-02-28T06:58:10;9.33;;;7.00;;
9563;SDS011;4820;50.870;4.702;2023-02-28T07:00:44;7.73;;;6.53;;
9563;SDS011;4820;50.870;4.702;2023-02-28T07:03:11;7.57;;;6.50;;
9563;SDS011;4820;50.870;4.702;2023-02-28T07:05:38;8.73;;;6.83;;
9563;SDS011;4820;50.870;4.702;2023-02-28T07:08:05;9.77;;;6.90;;
9563;SDS011;4820;50.870;4.702;2023-02-28T07:10:31;8.87;;;7.00;;
9563;SDS011;4820;50.870;4.702;2023-02-28T07:12:59;7.37;;;6.60;;
9563;SDS011;4820;50.870;4.702;2023-02-28T07:15:25;11.80;;;7.37;;
9563;SDS011;4820;50.870;4.702;2023-02-28T07:18:01;12.57;;;6.97;;
9563;SDS011;4820;50.870;4.702;2023-02-28T07:20:26;15.63;;;7.13;;
9563;SDS011;4820;50.870;4.702;2023-02-28T07:22:53;14.20;;;7.03;;
9563;SDS011;4820;50.870;4.702;2023-02-28T07:25:22;10.33;;;7.00;;
9563;SDS011;4820;50.870;4.702;2023-02-28T07:27:49;9.77;;;7.10;;
9563;SDS011;4820;50.870;4.702;2023-02-28T07:30:15;7.93;;;6.47;;
9563;SDS011;4820;50.870;4.702;2023-02-28T07:32:41;10.57;;;6.83;;
9563;SDS011;4820;50.870;4.702;2023-02-28T07:35:07;10.00;;;6.57;;
9563;SDS011;4820;50.870;4.702;2023-02-28T07:37:34;7.87;;;6.67;;
9563;SDS011;4820;50.870;4.702;2023-02-28T07:40:06;10.43;;;7.17;;
9563;SDS011;4820;50.870;4.702;2023-02-28T07:42:35;8.07;;;6.27;;
9563;SDS011;4820;50.870;4.702;2023-02-28T07:45:01;7.07;;;5.80;;
9563;SDS011;4820;50.870;4.702;2023-02-28T07:47:28;7.63;;;6.40;;
9563;SDS011;4820;50.870;4.702;2023-02-28T07:49:54;7.73;;;6.67;;
9563;SDS011;4820;50.870;4.702;2023-02-28T07:52:20;6.67;;;5.60;;
9563;SDS011;4820;50.870;4.702;2023-02-28T07:54:48;8.50;;;6.17;;
9563;SDS011;4820;50.870;4.702;2023-02-28T07:57:14;6.30;;;5.57;;
9563;SDS011;4820;50.870;4.702;2023-02-28T07:59:39;6.50;;;5.40;;
9563;SDS011;4820;50.870;4.702;2023-02-28T08:02:05;6.53;;;5.20;;
9563;SDS011;4820;50.870;4.702;2023-02-28T08:04:32;10.03;;;6.07;;
9563;SDS011;4820;50.870;4.702;2023-02-28T08:06:57;7.90;;;5.60;;
9563;SDS011;4820;50.870;4.702;2023-02-28T08:09:23;8.60;;;4.80;;
9563;SDS011;4820;50.870;4.702;2023-02-28T08:11:49;6.80;;;5.33;;
9563;SDS011;4820;50.870;4.702;2023-02-28T08:14:17;7.77;;;5.00;;
9563;SDS011;4820;50.870;4.702;2023-02-28T08:16:43;5.37;;;4.37;;
9563;SDS011;4820;50.870;4.702;2023-02-28T08:19:09;8.17;;;4.67;;
9563;SDS011;4820;50.870;4.702;2023-02-28T08:21:35;8.07;;;4.60;;
9563;SDS011;4820;50.870;4.702;2023-02-28T08:24:01;6.70;;;4.27;;
9563;SDS011;4820;50.870;4.702;2023-02-28T08:26:26;6.13;;;4.43;;
9563;SDS011;4820;50.870;4.702;2023-02-28T08:28:52;5.80;;;4.57;;
9563;SDS011;4820;50.870;4.702;2023-02-28T08:31:18;4.80;;;4.30;;
9563;SDS011;4820;50.870;4.702;2023-02-28T08:33:44;6.17;;;4.20;;
9563;SDS011;4820;50.870;4.702;2023-02-28T08:36:10;7.03;;;4.87;;
9563;SDS011;4820;50.870;4.702;2023-02-28T08:38:36;6.97;;;5.80;;
9563;SDS011;4820;50.870;4.702;2023-02-28T08:41:04;6.37;;;4.10;;
9563;SDS011;4820;50.870;4.702;2023-02-28T08:43:32;6.10;;;4.33;;
9563;SDS011;4820;50.870;4.702;2023-02-28T08:45:59;7.03;;;3.93;;
9563;SDS011;4820;50.870;4.702;2023-02-28T08:48:26;7.80;;;4.27;;
9563;SDS011;4820;50.870;4.702;2023-02-28T08:50:56;4.90;;;4.13;;
9563;SDS011;4820;50.870;4.702;2023-02-28T08:53:23;5.13;;;4.33;;
9563;SDS011;4820;50.870;4.702;2023-02-28T08:55:56;7.47;;;4.33;;
9563;SDS011;4820;50.870;4.702;2023-02-28T08:58:22;6.20;;;3.53;;
9563;SDS011;4820;50.870;4.702;2023-02-28T09:00:48;6.27;;;3.80;;
9563;SDS011;4820;50.870;4.702;2023-02-28T09:03:15;4.50;;;3.60;;
9563;SDS011;4820;50.870;4.702;2023-02-28T09:05:41;4.73;;;4.10;;
9563;SDS011;4820;50.870;4.702;2023-02-28T09:08:06;4.87;;;3.87;;
9563;SDS011;4820;50.870;4.702;2023-02-28T09:10:32;5.33;;;4.20;;
9563;SDS011;4820;50.870;4.702;2023-02-28T09:12:57;5.07;;;3.60;;
9563;SDS011;4820;50.870;4.702;2023-02-28T09:15:23;4.93;;;3.50;;
9563;SDS011;4820;50.870;4.702;2023-02-28T09:17:49;4.30;;;3.10;;
9563;SDS011;4820;50.870;4.702;2023-02-28T09:20:14;5.03;;;3.83;;
9563;SDS011;4820;50.870;4.702;2023-02-28T09:22:40;5.10;;;3.57;;
9563;SDS011;4820;50.870;4.702;2023-02-28T09:25:06;4.30;;;3.30;;
9563;SDS011;4820;50.870;4.702;2023-02-28T09:27:32;4.37;;;3.20;;
9563;SDS011;4820;50.870;4.702;2023-02-28T09:29:58;5.37;;;3.33;;
9563;SDS011;4820;50.870;4.702;2023-02-28T09:32:23;5.63;;;3.00;;
9563;SDS011;4820;50.870;4.702;2023-02-28T09:34:49;3.35;;;2.60;;
9563;SDS011;4820;50.870;4.702;2023-02-28T09:37:15;3.20;;;2.80;;
9563;SDS011;4820;50.870;4.702;2023-02-28T09:39:41;3.90;;;3.00;;
9563;SDS011;4820;50.870;4.702;2023-02-28T09:42:11;5.68;;;3.20;;
9563;SDS011;4820;50.870;4.702;2023-02-28T09:44:47;4.30;;;2.65;;
9563;SDS011;4820;50.870;4.702;2023-02-28T09:49:59;3.45;;;2.45;;
9563;SDS011;4820;50.870;4.702;2023-02-28T09:52:36;5.47;;;2.63;;
9563;SDS011;4820;50.870;4.702;2023-02-28T09:57:45;2.72;;;2.33;;
9563;SDS011;4820;50.870;4.702;2023-02-28T10:05:51;3.38;;;2.50;;
9563;SDS011;4820;50.870;4.702;2023-02-28T10:08:37;2.83;;;2.40;;
9563;SDS011;4820;50.870;4.702;2023-02-28T10:11:20;3.05;;;2.30;;
9563;SDS011;4820;50.870;4.702;2023-02-28T10:13:50;6.28;;;2.40;;
9563;SDS011;4820;50.870;4.702;2023-02-28T10:16:33;2.63;;;1.95;;
9563;SDS011;4820;50.870;4.702;2023-02-28T10:19:06;2.67;;;2.10;;
9563;SDS011;4820;50.870;4.702;2023-02-28T10:21:59;2.83;;;2.20;;
9563;SDS011;4820;50.870;4.702;2023-02-28T10:24:27;4.20;;;2.30;;
9563;SDS011;4820;50.870;4.702;2023-02-28T10:27:01;3.00;;;2.50;;
9563;SDS011;4820;50.870;4.702;2023-02-28T10:29:35;3.45;;;2.47;;
9563;SDS011;4820;50.870;4.702;2023-02-28T10:32:01;3.28;;;2.50;;
9563;SDS011;4820;50.870;4.702;2023-02-28T10:34:29;3.47;;;2.10;;
9563;SDS011;4820;50.870;4.702;2023-02-28T10:36:56;2.33;;;1.90;;
9563;SDS011;4820;50.870;4.702;2023-02-28T10:42:02;2.28;;;2.03;;
9563;SDS011;4820;50.870;4.702;2023-02-28T10:44:29;3.63;;;1.90;;
9563;SDS011;4820;50.870;4.702;2023-02-28T10:46:54;3.20;;;1.90;;
9563;SDS011;4820;50.870;4.702;2023-02-28T10:49:22;2.05;;;1.85;;
9563;SDS011;4820;50.870;4.702;2023-02-28T10:51:52;2.28;;;2.08;;
9563;SDS011;4820;50.870;4.702;2023-02-28T10:54:23;2.17;;;1.90;;
9563;SDS011;4820;50.870;4.702;2023-02-28T11:00:17;3.50;;;2.13;;
9563;SDS011;4820;50.870;4.702;2023-02-28T11:02:42;2.80;;;2.17;;
9563;SDS011;4820;50.870;4.702;2023-02-28T11:08:05;2.85;;;2.33;;
9563;SDS011;4820;50.870;4.702;2023-02-28T11:10:37;2.33;;;2.10;;
9563;SDS011;4820;50.870;4.702;2023-02-28T11:13:03;3.53;;;2.03;;
9563;SDS011;4820;50.870;4.702;2023-02-28T11:15:30;8.02;;;2.22;;
9563;SDS011;4820;50.870;4.702;2023-02-28T11:18:00;2.30;;;2.08;;
9563;SDS011;4820;50.870;4.702;2023-02-28T11:20:38;2.22;;;1.90;;
9563;SDS011;4820;50.870;4.702;2023-02-28T11:23:05;2.67;;;2.13;;
9563;SDS011;4820;50.870;4.702;2023-02-28T11:25:40;2.25;;;1.85;;
9563;SDS011;4820;50.870;4.702;2023-02-28T11:28:26;3.10;;;1.90;;
9563;SDS011;4820;50.870;4.702;2023-02-28T11:36:22;3.00;;;1.85;;
9563;SDS011;4820;50.870;4.702;2023-02-28T11:38:50;2.47;;;1.90;;
9563;SDS011;4820;50.870;4.702;2023-02-28T11:41:27;3.20;;;1.92;;
9563;SDS011;4820;50.870;4.702;2023-02-28T11:46:58;1.90;;;1.70;;
9563;SDS011;4820;50.870;4.702;2023-02-28T12:04:03;3.60;;;1.80;;
9563;SDS011;4820;50.870;4.702;2023-02-28T12:12:27;2.67;;;2.10;;
9563;SDS011;4820;50.870;4.702;2023-02-28T12:21:04;2.00;;;1.75;;
9563;SDS011;4820;50.870;4.702;2023-02-28T12:23:52;2.13;;;1.80;;
9563;SDS011;4820;50.870;4.702;2023-02-28T12:31:42;2.72;;;2.00;;
9563;SDS011;4820;50.870;4.702;2023-02-28T12:34:38;2.20;;;2.00;;
9563;SDS011;4820;50.870;4.702;2023-02-28T12:37:17;2.67;;;2.10;;
9563;SDS011;4820;50.870;4.702;2023-02-28T12:40:03;2.13;;;1.92;;
9563;SDS011;4820;50.870;4.702;2023-02-28T12:42:46;2.58;;;2.08;;
9563;SDS011;4820;50.870;4.702;2023-02-28T12:47:55;2.50;;;2.17;;
9563;SDS011;4820;50.870;4.702;2023-02-28T12:50:25;3.08;;;2.00;;
9563;SDS011;4820;50.870;4.702;2023-02-28T12:53:03;2.95;;;2.17;;
9563;SDS011;4820;50.870;4.702;2023-02-28T12:55:46;2.25;;;2.03;;
9563;SDS011;4820;50.870;4.702;2023-02-28T13:01:13;2.30;;;2.00;;
9563;SDS011;4820;50.870;4.702;2023-02-28T13:03:55;2.28;;;2.08;;
9563;SDS011;4820;50.870;4.702;2023-02-28T13:06:38;2.70;;;2.00;;
9563;SDS011;4820;50.870;4.702;2023-02-28T13:09:24;2.65;;;2.10;;
9563;SDS011;4820;50.870;4.702;2023-02-28T13:11:50;6.78;;;2.33;;
9563;SDS011;4820;50.870;4.702;2023-02-28T13:17:20;3.13;;;1.95;;
9563;SDS011;4820;50.870;4.702;2023-02-28T13:24:54;3.47;;;2.40;;
9563;SDS011;4820;50.870;4.702;2023-02-28T13:27:35;2.67;;;1.77;;
9563;SDS011;4820;50.870;4.702;2023-02-28T13:33:21;3.22;;;2.00;;
9563;SDS011;4820;50.870;4.702;2023-02-28T13:38:42;2.35;;;2.10;;
9563;SDS011;4820;50.870;4.702;2023-02-28T13:47:23;2.83;;;1.92;;
9563;SDS011;4820;50.870;4.702;2023-02-28T13:57:17;3.53;;;2.20;;
9563;SDS011;4820;50.870;4.702;2023-02-28T14:05:37;4.30;;;2.55;;
9563;SDS011;4820;50.870;4.702;2023-02-28T14:10:49;2.60;;;2.30;;
9563;SDS011;4820;50.870;4.702;2023-02-28T14:16:54;3.58;;;2.20;;
9563;SDS011;4820;50.870;4.702;2023-02-28T14:19:14;2.45;;;1.95;;
9563;SDS011;4820;50.870;4.702;2023-02-28T14:35:22;2.58;;;2.17;;
9563;SDS011;4820;50.870;4.702;2023-02-28T14:38:13;3.33;;;2.58;;
9563;SDS011;4820;50.870;4.702;2023-02-28T14:40:44;4.25;;;2.45;;
9563;SDS011;4820;50.870;4.702;2023-02-28T14:43:22;2.97;;;2.40;;
9563;SDS011;4820;50.870;4.702;2023-02-28T14:45:56;3.13;;;2.30;;
9563;SDS011;4820;50.870;4.702;2023-02-28T14:48:25;3.28;;;2.33;;
9563;SDS011;4820;50.870;4.702;2023-02-28T14:50:58;3.67;;;2.42;;
9563;SDS011;4820;50.870;4.702;2023-02-28T14:53:29;3.60;;;2.55;;
9563;SDS011;4820;50.870;4.702;2023-02-28T14:56:01;2.60;;;2.40;;
9563;SDS011;4820;50.870;4.702;2023-02-28T14:58:29;3.28;;;2.53;;
9563;SDS011;4820;50.870;4.702;2023-02-28T15:00:57;3.38;;;2.33;;
9563;SDS011;4820;50.870;4.702;2023-02-28T15:03:32;2.78;;;2.50;;
9563;SDS011;4820;50.870;4.702;2023-02-28T15:05:59;4.25;;;2.30;;
9563;SDS011;4820;50.870;4.702;2023-02-28T15:08:28;4.47;;;2.30;;
9563;SDS011;4820;50.870;4.702;2023-02-28T15:11:00;5.43;;;2.53;;
9563;SDS011;4820;50.870;4.702;2023-02-28T15:16:10;2.88;;;2.42;;
9563;SDS011;4820;50.870;4.702;2023-02-28T15:19:26;2.58;;;2.38;;
9563;SDS011;4820;50.870;4.702;2023-02-28T15:21:44;3.17;;;2.20;;
9563;SDS011;4820;50.870;4.702;2023-02-28T15:24:18;2.80;;;2.47;;
9563;SDS011;4820;50.870;4.702;2023-02-28T15:26:51;2.65;;;2.28;;
9563;SDS011;4820;50.870;4.702;2023-02-28T15:29:20;2.65;;;2.38;;
9563;SDS011;4820;50.870;4.702;2023-02-28T15:31:50;2.72;;;2.47;;
9563;SDS011;4820;50.870;4.702;2023-02-28T15:36:57;2.78;;;2.50;;
9563;SDS011;4820;50.870;4.702;2023-02-28T15:39:25;4.60;;;2.53;;
9563;SDS011;4820;50.870;4.702;2023-02-28T15:42:09;3.10;;;2.63;;
9563;SDS011;4820;50.870;4.702;2023-02-28T15:44:44;3.58;;;2.42;;
9563;SDS011;4820;50.870;4.702;2023-02-28T15:47:26;3.03;;;2.47;;
9563;SDS011;4820;50.870;4.702;2023-02-28T15:49:57;4.30;;;2.92;;
9563;SDS011;4820;50.870;4.702;2023-02-28T15:52:32;4.80;;;2.65;;
9563;SDS011;4820;50.870;4.702;2023-02-28T15:55:22;3.60;;;2.40;;
9563;SDS011;4820;50.870;4.702;2023-02-28T15:57:53;4.13;;;2.70;;
9563;SDS011;4820;50.870;4.702;2023-02-28T16:00:24;3.05;;;2.75;;
9563;SDS011;4820;50.870;4.702;2023-02-28T16:02:51;3.17;;;2.88;;
9563;SDS011;4820;50.870;4.702;2023-02-28T16:07:54;3.15;;;2.60;;
9563;SDS011;4820;50.870;4.702;2023-02-28T16:10:22;3.65;;;2.67;;
9563;SDS011;4820;50.870;4.702;2023-02-28T16:12:52;3.67;;;2.47;;
9563;SDS011;4820;50.870;4.702;2023-02-28T16:15:20;5.28;;;2.63;;
9563;SDS011;4820;50.870;4.702;2023-02-28T16:17:46;3.15;;;2.30;;
9563;SDS011;4820;50.870;4.702;2023-02-28T16:20:17;2.33;;;2.13;;
9563;SDS011;4820;50.870;4.702;2023-02-28T16:22:44;3.60;;;2.20;;
9563;SDS011;4820;50.870;4.702;2023-02-28T16:25:14;4.50;;;2.38;;
9563;SDS011;4820;50.870;4.702;2023-02-28T16:27:40;2.40;;;2.17;;
9563;SDS011;4820;50.870;4.702;2023-02-28T16:30:07;3.05;;;2.10;;
9563;SDS011;4820;50.870;4.702;2023-02-28T16:32:40;3.78;;;2.47;;
9563;SDS011;4820;50.870;4.702;2023-02-28T16:35:06;2.75;;;2.40;;
9563;SDS011;4820;50.870;4.702;2023-02-28T16:37:35;5.65;;;2.60;;
9563;SDS011;4820;50.870;4.702;2023-02-28T16:40:00;2.30;;;2.10;;
9563;SDS011;4820;50.870;4.702;2023-02-28T16:42:26;5.30;;;2.28;;
9563;SDS011;4820;50.870;4.702;2023-02-28T16:44:53;4.18;;;2.63;;
9563;SDS011;4820;50.870;4.702;2023-02-28T16:47:21;5.72;;;2.63;;
9563;SDS011;4820;50.870;4.702;2023-02-28T16:49:47;3.67;;;2.40;;
9563;SDS011;4820;50.870;4.702;2023-02-28T16:52:13;3.15;;;2.50;;
9563;SDS011;4820;50.870;4.702;2023-02-28T16:54:40;2.95;;;2.13;;
9563;SDS011;4820;50.870;4.702;2023-02-28T16:57:08;4.07;;;2.35;;
9563;SDS011;4820;50.870;4.702;2023-02-28T16:59:44;3.58;;;2.58;;
9563;SDS011;4820;50.870;4.702;2023-02-28T17:02:10;4.20;;;2.45;;
9563;SDS011;4820;50.870;4.702;2023-02-28T17:04:38;4.03;;;2.40;;
9563;SDS011;4820;50.870;4.702;2023-02-28T17:07:03;3.10;;;2.33;;
9563;SDS011;4820;50.870;4.702;2023-02-28T17:09:29;4.35;;;2.58;;
9563;SDS011;4820;50.870;4.702;2023-02-28T17:11:55;2.85;;;2.45;;
9563;SDS011;4820;50.870;4.702;2023-02-28T17:14:21;3.65;;;2.58;;
9563;SDS011;4820;50.870;4.702;2023-02-28T17:16:48;4.53;;;2.47;;
9563;SDS011;4820;50.870;4.702;2023-02-28T17:19:15;4.38;;;2.50;;
9563;SDS011;4820;50.870;4.702;2023-02-28T17:21:42;3.00;;;2.47;;
9563;SDS011;4820;50.870;4.702;2023-02-28T17:24:08;3.33;;;2.55;;
9563;SDS011;4820;50.870;4.702;2023-02-28T17:26:39;3.20;;;2.50;;
9563;SDS011;4820;50.870;4.702;2023-02-28T17:29:10;3.72;;;2.65;;
9563;SDS011;4820;50.870;4.702;2023-02-28T17:31:41;3.85;;;2.70;;
9563;SDS011;4820;50.870;4.702;2023-02-28T17:34:07;3.75;;;2.60;;
9563;SDS011;4820;50.870;4.702;2023-02-28T17:36:33;3.20;;;2.85;;
9563;SDS011;4820;50.870;4.702;2023-02-28T17:39:00;2.63;;;2.33;;
9563;SDS011;4820;50.870;4.702;2023-02-28T17:41:26;3.20;;;2.70;;
9563;SDS011;4820;50.870;4.702;2023-02-28T17:43:52;2.95;;;2.63;;
9563;SDS011;4820;50.870;4.702;2023-02-28T17:46:22;4.22;;;3.10;;
9563;SDS011;4820;50.870;4.702;2023-02-28T17:48:49;4.43;;;2.90;;
9563;SDS011;4820;50.870;4.702;2023-02-28T17:51:17;4.40;;;3.08;;
9563;SDS011;4820;50.870;4.702;2023-02-28T17:53:44;4.10;;;2.80;;
9563;SDS011;4820;50.870;4.702;2023-02-28T17:56:21;3.50;;;2.97;;
9563;SDS011;4820;50.870;4.702;2023-02-28T17:58:48;4.72;;;3.17;;
9563;SDS011;4820;50.870;4.702;2023-02-28T18:01:16;6.15;;;3.13;;
9563;SDS011;4820;50.870;4.702;2023-02-28T18:03:41;3.72;;;3.10;;
9563;SDS011;4820;50.870;4.702;2023-02-28T18:06:09;4.72;;;3.53;;
9563;SDS011;4820;50.870;4.702;2023-02-28T18:08:44;3.67;;;3.20;;
9563;SDS011;4820;50.870;4.702;2023-02-28T18:11:10;7.80;;;3.47;;
9563;SDS011;4820;50.870;4.702;2023-02-28T18:13:45;5.07;;;3.38;;
9563;SDS011;4820;50.870;4.702;2023-02-28T18:16:20;5.05;;;3.30;;
9563;SDS011;4820;50.870;4.702;2023-02-28T18:18:47;4.13;;;3.30;;
9563;SDS011;4820;50.870;4.702;2023-02-28T18:21:13;4.50;;;3.00;;
9563;SDS011;4820;50.870;4.702;2023-02-28T18:23:41;4.68;;;3.05;;
9563;SDS011;4820;50.870;4.702;2023-02-28T18:26:13;4.57;;;3.08;;